Airfield :
LOGIN :

Register | Disclaimer

   EN    FR    IT 

 










Legend :    VFR   Marginal VFR   IFR   Intensive IFR   Very Intensive IFR
Visi :
Ceiling :
>= 8 km
>= 3000ft
5 to 8 km
1000 to 3000 ft
1500m to 5 km
500 to 1000 ft
800 to 1500m
200 to 500 ft
< 800m
< 200 ft
Symbols :   Thunderstorms  Fog  Heavy snow  Heavy precipitations  Wind > 20 kt
SIGMETs :     Misc.  Thunderstorms  Icing  Turbulence  Mountain Waves  Volcanic Ashes






- Airport Elevation : 74 ft
- IATA code : NDZ


ETMN - Cuxhaven Nordholz Sea AB

CURRENT METAR :
  • 241320Z 22009KT 9999 SCT018 BKN060 08/04 Q0998 BLU

EXPIRED METARs :
  • 241220Z 22008KT 9999 FEW016 BKN056 07/04 Q0998 BLU
  • 241120Z 21008KT 9999 FEW014 BKN060 07/03 Q0998 BLU
  • 241020Z 20008KT 9999 FEW030 BKN058 06/03 Q0998 BLU
  • 240920Z 19007KT 9999 BKN027 BKN055 05/03 Q0997 BLU
  • 240820Z 18006KT 9999 -RA FEW040 BKN055 04/02 Q0997 BLU

Expired Forecast.



MET'MAP, your aeronautical weather chart ! - Copyright ORBIFLY December 2007 - Disclaimer

ORBIFLY MET'MAP TEAM :

Programming & Development : Alexandra Zaïnal
Original concept : Baudouin d'Aumeries
Technical & hardware support : Manuel Goepfert
Assistance : Marc-Olivier Méhu




SOURCES & CREDITS :

   NOAA